Time;durP1;ratioP1;P1;durP2;ratioP2;P2;SDS_P1;SDS_P2;PMS_P1;PMS_P2;Temp;Humidity;BMP_temperature;BMP_pressure;BME280_temperature;BME280_humidity;BME280_pressure;Samples;Min_cycle;Max_cycle;Signal;HPM_P1;HPM_P2
2021/01/29 04:08:11;;;;;;;2.25;2.05;;;6.30;99.90;;;;;;5723564;23;20232;-76
2021/01/29 04:10:40;;;;;;;2.00;1.63;;;6.40;99.90;;;;;;5004277;28;20200;-78
2021/01/29 04:13:35;;;;;;;1.80;1.70;;;6.40;99.90;;;;;;5012193;28;20193;-76
2021/01/29 04:16:03;;;;;;;1.95;1.85;;;6.40;99.90;;;;;;5006256;28;20213;-78
2021/01/29 04:18:33;;;;;;;1.92;1.83;;;6.40;99.90;;;;;;5011950;28;20197;-77
2021/01/29 04:21:20;;;;;;;2.10;2.00;;;6.40;99.90;;;;;;5012807;28;20248;-78
2021/01/29 04:24:25;;;;;;;1.73;1.63;;;6.40;99.90;;;;;;5011738;28;20196;-76
2021/01/29 04:27:13;;;;;;;1.70;1.60;;;6.40;99.90;;;;;;4933724;29;20184;-75
2021/01/29 04:30:00;;;;;;;2.05;1.95;;;6.40;99.90;;;;;;4933525;29;20196;-78
2021/01/29 04:32:32;;;;;;;2.13;2.00;;;6.40;99.90;;;;;;4932769;29;20180;-75
2021/01/29 04:34:59;;;;;;;2.17;2.08;;;6.40;99.90;;;;;;4933360;29;20650;-76
2021/01/29 04:37:30;;;;;;;2.15;2.05;;;6.50;99.90;;;;;;4931346;29;20262;-76
2021/01/29 04:40:02;;;;;;;2.47;2.00;;;6.50;99.90;;;;;;4933249;29;20176;-75
2021/01/29 04:43:04;;;;;;;2.30;2.15;;;6.50;99.90;;;;;;4917554;29;20172;-75
2021/01/29 04:45:52;;;;;;;2.25;2.08;;;6.40;99.90;;;;;;4932548;29;20274;-75
2021/01/29 04:48:58;;;;;;;1.98;1.88;;;6.40;99.90;;;;;;4916845;29;20220;-78
2021/01/29 04:52:05;;;;;;;1.85;1.75;;;6.40;99.90;;;;;;4915943;29;20187;-78
2021/01/29 04:55:01;;;;;;;2.15;2.05;;;6.40;99.90;;;;;;4894953;29;20208;-78
2021/01/29 04:57:37;;;;;;;1.80;1.70;;;6.40;99.90;;;;;;4928668;28;20219;-78
2021/01/29 05:00:03;;;;;;;2.40;2.20;;;6.30;99.90;;;;;;4955265;28;20177;-78
2021/01/29 05:02:50;;;;;;;2.15;2.03;;;6.30;99.90;;;;;;4971303;28;20668;-78
2021/01/29 05:05:45;;;;;;;2.45;2.25;;;6.40;99.90;;;;;;4955063;28;20175;-78
2021/01/29 05:08:35;;;;;;;2.67;2.17;;;6.40;99.90;;;;;;4954505;28;20270;-78
2021/01/29 05:11:19;;;;;;;2.40;2.20;;;6.30;99.90;;;;;;4955063;28;20178;-78
2021/01/29 05:14:09;;;;;;;2.35;2.25;;;6.30;99.90;;;;;;4954980;28;20281;-77
2021/01/29 05:16:42;;;;;;;2.10;2.00;;;6.30;99.90;;;;;;4954744;28;20422;-78
2021/01/29 05:19:28;;;;;;;2.17;2.08;;;6.30;99.90;;;;;;4954901;28;20194;-78
2021/01/29 05:22:15;;;;;;;2.00;1.90;;;6.30;99.90;;;;;;4954186;28;20193;-78
2021/01/29 05:24:59;;;;;;;2.40;2.20;;;6.40;99.90;;;;;;4954524;28;20194;-77
2021/01/29 05:27:47;;;;;;;2.10;2.00;;;6.20;99.90;;;;;;4956089;28;20178;-78
2021/01/29 05:30:55;;;;;;;2.00;1.90;;;6.30;99.90;;;;;;5010918;28;20180;-78
2021/01/29 05:33:29;;;;;;;2.50;2.30;;;6.20;99.90;;;;;;5010866;28;20733;-78
2021/01/29 05:36:11;;;;;;;2.30;2.10;;;6.20;99.90;;;;;;5010836;28;20184;-78
2021/01/29 05:39:08;;;;;;;2.28;2.08;;;6.20;99.90;;;;;;5010195;28;20203;-78
2021/01/29 05:41:42;;;;;;;2.53;2.33;;;6.20;99.90;;;;;;5012300;28;20203;-77
2021/01/29 05:44:14;;;;;;;3.45;2.30;;;6.20;99.90;;;;;;5010021;28;20196;-78
2021/01/29 05:47:03;;;;;;;2.63;2.42;;;6.20;99.90;;;;;;5009615;28;20173;-77
2021/01/29 05:49:47;;;;;;;2.40;2.20;;;6.20;99.90;;;;;;5010688;28;20592;-78
2021/01/29 05:52:13;;;;;;;2.42;2.22;;;6.20;99.90;;;;;;5010602;28;20210;-78
2021/01/29 05:55:00;;;;;;;2.72;2.40;;;6.20;99.90;;;;;;5010580;28;20181;-77
2021/01/29 05:58:03;;;;;;;2.30;2.20;;;5.80;99.90;;;;;;5013886;28;20220;-77
2021/01/29 06:01:22;;;;;;;2.00;1.90;;;6.20;99.90;;;;;;5014747;28;20177;-77
2021/01/29 06:04:15;;;;;;;2.28;2.08;;;6.20;99.90;;;;;;4919917;29;20561;-77
2021/01/29 06:06:47;;;;;;;2.80;2.40;;;6.30;99.90;;;;;;5014321;28;20204;-77
2021/01/29 06:09:32;;;;;;;2.00;1.90;;;5.60;99.90;;;;;;5015596;28;20233;-77
2021/01/29 06:12:16;;;;;;;2.60;2.40;;;6.30;99.90;;;;;;5014217;28;20181;-77
2021/01/29 06:15:10;;;;;;;2.55;2.35;;;6.20;99.90;;;;;;5004477;28;20169;-78
2021/01/29 06:17:48;;;;;;;3.08;2.78;;;6.30;99.90;;;;;;5004886;28;20221;-80
2021/01/29 06:20:26;;;;;;;2.58;2.38;;;6.30;99.90;;;;;;5004747;28;20536;-81
2021/01/29 06:23:20;;;;;;;2.75;2.55;;;5.20;99.90;;;;;;5003564;28;20190;-80
2021/01/29 06:25:57;;;;;;;2.50;2.30;;;6.30;99.90;;;;;;5006440;28;20276;-81
2021/01/29 06:28:54;;;;;;;2.50;2.30;;;6.30;99.90;;;;;;5008378;28;20244;-80
2021/01/29 06:31:51;;;;;;;2.20;2.10;;;6.30;99.90;;;;;;5005521;28;20216;-80
2021/01/29 06:34:26;;;;;;;2.40;2.20;;;6.30;99.90;;;;;;5005230;28;20193;-79
2021/01/29 06:37:15;;;;;;;2.30;2.03;;;6.30;99.90;;;;;;4999122;28;20207;-81
2021/01/29 06:40:08;;;;;;;2.85;2.60;;;6.30;99.90;;;;;;5006340;28;20208;-80
2021/01/29 06:43:02;;;;;;;2.90;2.70;;;6.30;99.90;;;;;;5014734;28;20486;-72
2021/01/29 06:46:06;;;;;;;2.47;2.28;;;6.30;99.90;;;;;;5015116;28;20260;-71
2021/01/29 06:49:07;;;;;;;2.55;2.35;;;6.30;99.90;;;;;;4983192;28;20212;-71
2021/01/29 06:51:58;;;;;;;3.35;2.78;;;6.80;99.90;;;;;;4936418;29;20218;-71
2021/01/29 06:54:59;;;;;;;3.03;2.72;;;6.40;99.90;;;;;;4971016;28;20256;-71
2021/01/29 06:58:04;;;;;;;2.50;2.30;;;6.30;99.90;;;;;;5014441;28;20220;-71
2021/01/29 07:00:54;;;;;;;2.80;2.60;;;6.30;99.90;;;;;;5016529;28;20269;-71
2021/01/29 07:03:50;;;;;;;2.67;2.47;;;6.40;99.90;;;;;;5032442;28;20203;-72
2021/01/29 07:06:48;;;;;;;2.70;2.50;;;6.40;99.90;;;;;;5032779;28;20176;-72
2021/01/29 07:09:50;;;;;;;2.30;2.10;;;6.40;99.90;;;;;;4995054;28;20232;-72
2021/01/29 07:12:29;;;;;;;2.03;1.92;;;6.40;99.90;;;;;;5013120;28;20184;-72
2021/01/29 07:15:19;;;;;;;2.28;2.08;;;6.40;99.90;;;;;;5014561;28;20188;-71
2021/01/29 07:18:00;;;;;;;2.00;1.90;;;6.30;99.90;;;;;;5014249;28;20282;-71
2021/01/29 07:20:43;;;;;;;3.53;2.40;;;6.30;99.90;;;;;;5013031;28;20169;-72
2021/01/29 07:23:40;;;;;;;3.67;2.45;;;6.40;99.90;;;;;;5012825;28;20678;-71
2021/01/29 07:26:18;;;;;;;2.95;2.55;;;6.40;99.90;;;;;;5013030;28;20272;-72
2021/01/29 07:29:02;;;;;;;2.47;2.15;;;6.40;99.90;;;;;;5009474;28;20225;-71
2021/01/29 07:31:46;;;;;;;2.30;2.10;;;7.30;99.90;;;;;;4994668;28;20639;-71
2021/01/29 07:34:29;;;;;;;2.22;2.03;;;6.40;99.90;;;;;;4994306;28;20197;-72
2021/01/29 07:37:13;;;;;;;2.40;2.20;;;6.40;99.90;;;;;;4994202;28;20209;-72
2021/01/29 07:39:41;;;;;;;1.70;1.60;;;6.40;99.90;;;;;;4994375;28;20178;-72
2021/01/29 07:42:31;;;;;;;2.60;2.38;;;6.50;99.90;;;;;;4992993;28;20184;-72
2021/01/29 07:45:34;;;;;;;2.40;2.20;;;6.50;99.90;;;;;;4994389;28;20182;-72
2021/01/29 07:48:06;;;;;;;1.73;1.63;;;6.50;99.90;;;;;;4994396;28;20196;-72
2021/01/29 07:50:43;;;;;;;1.70;1.60;;;6.50;99.90;;;;;;4994406;28;20177;-72
2021/01/29 07:53:30;;;;;;;1.73;1.63;;;6.50;99.90;;;;;;4994220;28;20243;-72
2021/01/29 07:56:13;;;;;;;1.48;1.38;;;6.50;99.90;;;;;;4994513;28;20665;-72
2021/01/29 07:59:03;;;;;;;1.83;1.60;;;6.50;99.90;;;;;;4994295;28;20196;-72
2021/01/29 08:01:53;;;;;;;1.50;1.40;;;6.50;99.90;;;;;;4993026;28;20229;-72
2021/01/29 08:04:37;;;;;;;1.65;1.50;;;6.50;99.90;;;;;;4992928;28;20198;-72
2021/01/29 08:07:14;;;;;;;1.50;1.40;;;6.50;99.90;;;;;;4993847;28;20178;-72
2021/01/29 08:09:44;;;;;;;3.28;2.97;;;6.60;99.90;;;;;;4994212;28;20304;-72
2021/01/29 08:12:16;;;;;;;4.75;2.60;;;6.80;99.90;;;;;;4994386;28;20170;-72
2021/01/29 08:14:47;;;;;;;2.10;1.90;;;6.60;99.90;;;;;;4993895;28;20181;-72
2021/01/29 08:17:50;;;;;;;2.22;2.03;;;6.50;99.90;;;;;;4993945;28;20202;-72
2021/01/29 08:20:30;;;;;;;2.33;1.83;;;6.50;99.90;;;;;;4992104;28;20182;-72
2021/01/29 08:23:14;;;;;;;2.17;1.98;;;6.50;99.90;;;;;;4993634;28;20247;-72
2021/01/29 08:25:59;;;;;;;2.00;1.80;;;6.50;99.90;;;;;;4992410;28;20596;-72
2021/01/29 08:28:54;;;;;;;3.10;2.00;;;6.50;99.90;;;;;;4953519;28;20586;-72
2021/01/29 08:31:50;;;;;;;1.77;1.67;;;6.50;99.90;;;;;;4960039;28;20185;-71
2021/01/29 08:34:39;;;;;;;2.17;1.98;;;6.50;99.90;;;;;;4993611;28;20193;-72
2021/01/29 08:37:24;;;;;;;4.18;1.90;;;6.60;99.90;;;;;;4993103;28;20205;-72
2021/01/29 08:40:15;;;;;;;1.63;1.52;;;6.50;99.90;;;;;;4993640;28;20702;-72
2021/01/29 08:42:59;;;;;;;2.10;1.90;;;6.50;99.90;;;;;;4993172;28;20205;-71
2021/01/29 08:45:48;;;;;;;3.00;2.70;;;6.50;99.90;;;;;;4993585;28;20182;-72
2021/01/29 08:48:32;;;;;;;3.08;2.67;;;6.60;99.90;;;;;;4993305;28;20265;-71
2021/01/29 08:51:13;;;;;;;2.83;2.63;;;6.50;99.90;;;;;;4993420;28;20180;-71
2021/01/29 08:53:53;;;;;;;3.58;3.28;;;6.60;99.90;;;;;;4993027;28;20189;-72
2021/01/29 08:56:42;;;;;;;3.17;2.92;;;6.60;99.90;;;;;;4993042;28;20209;-71
2021/01/29 08:59:18;;;;;;;3.67;3.38;;;6.60;99.90;;;;;;4991941;28;20197;-72
2021/01/29 09:02:01;;;;;;;4.65;4.15;;;6.70;99.90;;;;;;4993040;28;20166;-72
2021/01/29 09:04:45;;;;;;;3.88;3.58;;;6.70;99.90;;;;;;4993089;28;20213;-72
2021/01/29 09:07:21;;;;;;;3.47;3.17;;;6.70;99.90;;;;;;4992611;28;20170;-72
2021/01/29 09:09:49;;;;;;;2.92;2.58;;;6.70;99.90;;;;;;4992974;28;20248;-72
2021/01/29 09:12:24;;;;;;;2.40;2.20;;;6.70;99.90;;;;;;4992697;28;20188;-72
2021/01/29 09:15:01;;;;;;;2.90;2.60;;;6.80;99.90;;;;;;4993267;28;20231;-72
2021/01/29 09:17:40;;;;;;;3.03;2.83;;;6.80;99.90;;;;;;4992648;28;20311;-72
2021/01/29 09:20:08;;;;;;;2.63;2.42;;;6.80;99.90;;;;;;4992949;28;20257;-72
2021/01/29 09:22:50;;;;;;;2.10;1.90;;;6.80;99.90;;;;;;4990844;28;20193;-73
2021/01/29 09:25:26;;;;;;;2.72;2.53;;;6.90;99.90;;;;;;4991407;28;20188;-72
2021/01/29 09:28:13;;;;;;;3.15;2.47;;;6.90;99.90;;;;;;4991479;28;20622;-72
2021/01/29 09:30:45;;;;;;;2.95;2.25;;;7.00;99.90;;;;;;4990705;28;20181;-72
2021/01/29 09:33:27;;;;;;;2.20;2.00;;;7.00;99.90;;;;;;4992528;28;20252;-72
2021/01/29 09:36:01;;;;;;;2.65;1.73;;;7.00;99.90;;;;;;4991263;28;20208;-72
2021/01/29 09:38:44;;;;;;;1.60;1.50;;;7.00;99.90;;;;;;4990875;28;20201;-72
2021/01/29 09:41:21;;;;;;;1.70;1.60;;;7.00;99.90;;;;;;4992676;28;20166;-72
2021/01/29 09:44:10;;;;;;;4.13;1.55;;;7.00;99.90;;;;;;4992503;28;20436;-72
2021/01/29 09:46:43;;;;;;;1.50;1.40;;;7.10;99.90;;;;;;4992644;28;20193;-72
2021/01/29 09:49:10;;;;;;;2.35;1.05;;;7.10;99.90;;;;;;4992375;28;20280;-72
2021/01/29 09:51:42;;;;;;;4.43;1.88;;;7.10;99.90;;;;;;4994110;28;20174;-72
2021/01/29 09:54:38;;;;;;;1.27;1.17;;;7.10;99.90;;;;;;4992116;28;20229;-72
2021/01/29 09:57:18;;;;;;;3.00;1.63;;;7.10;99.90;;;;;;4992212;28;20672;-73
2021/01/29 09:59:53;;;;;;;1.50;1.40;;;7.10;99.90;;;;;;4991031;28;20174;-72
2021/01/29 10:02:48;;;;;;;1.17;0.98;;;7.10;99.90;;;;;;4995632;28;20240;-72
2021/01/29 10:05:39;;;;;;;1.80;1.70;;;7.10;99.90;;;;;;5009166;28;20350;-72
2021/01/29 10:08:15;;;;;;;3.55;1.15;;;7.00;99.90;;;;;;5010251;28;20237;-72
2021/01/29 10:10:58;;;;;;;2.63;1.23;;;7.10;99.90;;;;;;5000150;28;20177;-72
2021/01/29 10:13:51;;;;;;;1.30;1.20;;;7.10;99.90;;;;;;4991770;28;20189;-72
2021/01/29 10:16:19;;;;;;;1.40;1.30;;;7.10;99.90;;;;;;5000914;28;20263;-72
2021/01/29 10:18:52;;;;;;;1.70;1.50;;;7.10;99.90;;;;;;4996727;28;20224;-71
2021/01/29 10:21:22;;;;;;;1.30;1.20;;;7.20;99.90;;;;;;5001841;28;20201;-72
2021/01/29 10:24:05;;;;;;;1.92;1.73;;;7.20;99.90;;;;;;5001810;28;20198;-70
2021/01/29 10:26:47;;;;;;;2.42;2.22;;;7.20;99.90;;;;;;5003048;28;20173;-70
2021/01/29 10:29:21;;;;;;;2.20;2.00;;;7.20;99.90;;;;;;5005700;28;20197;-71
2021/01/29 10:32:13;;;;;;;2.35;1.92;;;7.20;99.90;;;;;;5004010;28;20699;-71
2021/01/29 10:34:48;;;;;;;1.90;1.70;;;7.20;99.90;;;;;;4998908;28;20232;-70
2021/01/29 10:37:37;;;;;;;2.00;1.80;;;7.20;99.90;;;;;;4988926;28;20213;-70
2021/01/29 10:40:41;;;;;;;2.33;1.90;;;7.20;99.90;;;;;;4990142;28;20193;-71
2021/01/29 10:43:18;;;;;;;2.67;2.08;;;7.20;99.90;;;;;;5007290;28;20212;-71
2021/01/29 10:45:59;;;;;;;2.63;2.17;;;7.30;99.90;;;;;;5010019;28;20174;-69
2021/01/29 10:48:49;;;;;;;2.05;1.60;;;7.30;99.90;;;;;;5007178;28;20276;-71
2021/01/29 10:51:26;;;;;;;2.53;1.33;;;7.30;99.90;;;;;;5002489;28;20217;-70
2021/01/29 10:54:00;;;;;;;2.05;1.60;;;7.30;99.90;;;;;;5004476;28;20664;-73
2021/01/29 10:56:50;;;;;;;2.47;1.40;;;7.40;99.90;;;;;;4995685;28;20198;-72
2021/01/29 10:59:26;;;;;;;1.88;0.90;;;7.50;99.90;;;;;;5006918;28;20267;-73
2021/01/29 11:02:02;;;;;;;0.60;0.60;;;7.60;99.90;;;;;;5009054;28;20185;-72
2021/01/29 11:04:37;;;;;;;1.00;0.70;;;7.70;99.90;;;;;;5003168;28;20225;-72
2021/01/29 11:07:21;;;;;;;1.30;0.77;;;7.80;99.90;;;;;;4994644;28;20212;-72
2021/01/29 11:09:56;;;;;;;1.60;1.17;;;7.80;99.90;;;;;;5001998;28;20229;-72
2021/01/29 11:12:27;;;;;;;1.17;1.00;;;7.80;99.90;;;;;;5004244;28;20169;-71
2021/01/29 11:14:57;;;;;;;0.70;0.70;;;7.90;99.90;;;;;;5001149;28;20561;-71
2021/01/29 11:17:33;;;;;;;0.77;0.70;;;7.90;99.90;;;;;;4996764;28;20208;-71
2021/01/29 11:20:03;;;;;;;1.15;0.88;;;8.00;99.90;;;;;;5001265;28;20177;-76
2021/01/29 11:22:38;;;;;;;0.80;0.80;;;8.10;99.90;;;;;;5004732;28;20269;-75
2021/01/29 11:25:18;;;;;;;1.60;1.50;;;8.10;99.90;;;;;;5002547;28;20560;-75
2021/01/29 11:28:01;;;;;;;0.63;0.63;;;8.20;99.90;;;;;;5013881;28;20193;-73
2021/01/29 11:30:58;;;;;;;0.68;0.68;;;8.20;99.90;;;;;;5014451;28;20173;-73
2021/01/29 11:33:30;;;;;;;0.85;0.75;;;8.30;99.90;;;;;;5010603;28;20679;-76
2021/01/29 11:36:13;;;;;;;0.68;0.68;;;8.40;99.90;;;;;;5014690;28;20638;-75
2021/01/29 11:38:49;;;;;;;0.70;0.70;;;8.40;99.90;;;;;;4992466;28;20237;-75
2021/01/29 11:41:27;;;;;;;0.95;0.85;;;8.50;99.90;;;;;;5001793;28;20699;-77
2021/01/29 11:44:05;;;;;;;0.13;0.10;;;8.50;99.90;;;;;;5001935;28;20671;-77
2021/01/29 11:47:00;;;;;;;0.28;0.28;;;8.60;99.90;;;;;;5002914;28;20173;-78
2021/01/29 11:49:30;;;;;;;0.20;0.20;;;8.80;99.90;;;;;;4994269;28;20206;-77
2021/01/29 11:52:04;;;;;;;0.40;0.22;;;8.90;99.90;;;;;;5003882;28;20172;-75
2021/01/29 11:54:45;;;;;;;0.10;0.10;;;9.00;99.90;;;;;;5003972;28;20196;-75
2021/01/29 11:57:32;;;;;;;0.13;0.13;;;9.10;99.90;;;;;;5003018;28;20198;-76
2021/01/29 12:00:08;;;;;;;0.57;0.30;;;9.20;99.90;;;;;;5002246;28;20656;-76
2021/01/29 12:02:39;;;;;;;0.25;0.20;;;9.50;99.90;;;;;;5007955;28;20188;-76
2021/01/29 12:05:20;;;;;;;0.30;0.30;;;9.50;99.90;;;;;;5006302;28;20199;-69
2021/01/29 12:07:49;;;;;;;0.75;0.20;;;9.60;99.90;;;;;;5003536;28;20212;-70
2021/01/29 12:10:28;;;;;;;0.28;0.20;;;9.60;99.90;;;;;;5004165;28;20170;-71
2021/01/29 12:13:05;;;;;;;0.40;0.30;;;9.70;99.90;;;;;;5004385;28;20224;-71
2021/01/29 12:15:42;;;;;;;0.45;0.25;;;9.70;99.90;;;;;;5008750;28;20299;-71
2021/01/29 12:18:11;;;;;;;0.20;0.20;;;9.70;99.90;;;;;;5007464;28;20710;-69
2021/01/29 12:20:42;;;;;;;0.35;0.30;;;9.80;99.90;;;;;;5002733;28;20703;-70
2021/01/29 12:23:29;;;;;;;0.30;0.30;;;9.80;99.90;;;;;;5000337;28;20280;-70
2021/01/29 12:26:23;;;;;;;0.50;0.30;;;9.90;99.90;;;;;;5001182;28;20174;-71
2021/01/29 12:29:09;;;;;;;0.20;0.20;;;10.10;99.90;;;;;;5004135;28;20287;-71
2021/01/29 12:31:54;;;;;;;0.50;0.50;;;;;;;;;;4998795;28;20216;-72
2021/01/29 12:46:51;;;;;;;0.73;0.60;;;10.80;99.90;;;;;;5132320;27;20488;-74
2021/01/29 12:49:28;;;;;;;1.10;0.60;;;10.80;99.90;;;;;;5139188;27;20191;-74
2021/01/29 12:52:04;;;;;;;0.55;0.52;;;10.80;99.90;;;;;;5134939;27;20697;-74
2021/01/29 12:54:48;;;;;;;0.50;0.43;;;10.80;99.90;;;;;;5130373;27;20200;-74
2021/01/29 12:57:15;;;;;;;1.70;0.70;;;10.80;99.90;;;;;;5126657;27;20161;-73
2021/01/29 12:59:48;;;;;;;0.60;0.60;;;10.80;99.90;;;;;;5129651;27;20165;-73
2021/01/29 13:02:35;;;;;;;0.68;0.68;;;10.50;99.90;;;;;;5128644;28;20161;-72
2021/01/29 13:05:33;;;;;;;0.55;0.40;;;10.80;99.90;;;;;;5142848;27;20223;-73
2021/01/29 13:08:33;;;;;;;1.48;0.30;;;10.60;99.90;;;;;;5148361;27;20219;-72
2021/01/29 13:11:03;;;;;;;0.88;0.68;;;;;;;;;;5128973;27;20644;-70
